KACP

Details ICAO KACP
Name ALLEN PARISH
Region United States
Timezone America/Chicago (UTC-5.0)
Plans Departing 3
Arriving 13
Stats Elevation 107 ft / 33 m (AMSL)
Location 30.750491° -92.686992°
Runways 1
Magnetic Variation 0.739° E
Sunrise 2018-05-25 11:12:07 UTC / 2018-05-25 06:12:07 Local
Sunset 2018-05-26 01:06:11 UTC / 2018-05-25 20:06:11 Local
Advertisement - Login to hide

Runways

ID Width Length Bearing (true) Bearing (mag) Surface Threshold Offset Overrun Length
18 75 ft / 23 m 5,099 ft / 1,554 m 169.82° 169.08° Asphalt 0 ft / 0 m 0 ft / 0 m
36 75 ft / 23 m 5,099 ft / 1,554 m 349.83° 349.09° Asphalt 0 ft / 0 m 0 ft / 0 m

Map

Weather


0- 5 10 15 20 25 30 35+ Temperature / ° C

Clouds and Precipitation
Forecast for 2018-05-25 12:00 UTC. Updated 2 hours ago

Ground ~20,000 ft ~40,000 ft Winds

METAR

KACP 251055Z AUTO 00000KT 4SM BR OVC003 20/19 A2998 RMK AO2 T01950186

TAF

Not found

Frequencies

Recorded 118.27 MHz AWOS 3
Approach 123.70 MHz POLK APP/DEP
Unicom 122.80 MHz CTAF/UNICOM
Warning: Do not use this data for real-world aviation or navigation. No guarantee of current accuracy is given.